Airfield :







YOU CAN JOIN US ON...

 
LOGIN :

Register | Disclaimer

   EN    FR    IT 

 









Legend :    VFR   Marginal VFR   IFR   Intensive IFR   Very Intensive IFR
Visi :
Ceiling :
>= 8 km
>= 3000ft
5 to 8 km
1000 to 3000 ft
1500m to 5 km
500 to 1000 ft
800 to 1500m
200 to 500 ft
< 800m
< 200 ft
Symbols :   Thunderstorms  Fog  Heavy snow  Heavy precipitations  Wind > 20 kt







- Airport Elevation : 270 ft
- IATA code : YMX


CYMX - Montreal International Mirabel

CURRENT METAR :
  • 251300Z 11004KT 040V120 12SM OVC009 05/03 A2995 RMK SC8 SLP148

EXPIRED METARs :
  • 251200Z 07003KT 010V090 5SM BR BKN009 OVC013 04/03 A2995 RMK SF6SC2 SLP147
  • 251100Z 04003KT 360V080 15SM BKN012 OVC040 03/02 A2994 RMK SC7SC1 SLP145

TAF AMD TAF CYMX
Valid from the 25 at 12:00 until the 26 at 12:00 UTC


251221Z 2512/2612 05005KT P6SM BKN012 OVC040
TEMPO 2512/2514 5SM BR BKN009 OVC012
FM251400 VRB03KT 5SM -DZ BR BKN012 OVC040
TEMPO 2514/2516 P6SM NSW SCT012 BKN040
FM251600 21005KT P6SM BKN030
FM252100 22005KT P6SM SCT040 BKN240
FM260300 09005KT P6SM SCT120 BKN240
FM261000 05008KT P6SM BKN100 OVC180 RMK NXT FCST BY 251800Z
CZUL FIR / North America



MET'MAP, your aeronautical weather chart ! - Copyright ORBIFLY December 2007 - Disclaimer

ORBIFLY MET'MAP TEAM :

Programming & Development : Alexandra Zaïnal
Concept & Development : Baudouin d'Aumeries
Co-Development & Prog : Marc-Olivier Méhu
Technical & hardware support : Manuel Goepfert

Contact : metmap@orbifly.com




SOURCES & CREDITS :

   NOAA